createdAt,value
2019-02-25T00:01:56.882Z,3.75
2019-02-25T00:04:25.707Z,4.20
2019-02-25T00:06:54.543Z,3.80
2019-02-25T00:09:23.443Z,3.67
2019-02-25T00:11:52.357Z,3.85
2019-02-25T00:14:21.174Z,3.37
2019-02-25T00:16:50.135Z,3.65
2019-02-25T00:19:19.036Z,3.62
2019-02-25T00:21:47.913Z,3.67
2019-02-25T00:24:16.776Z,3.60
2019-02-25T00:26:45.601Z,3.92
2019-02-25T00:29:14.370Z,3.50
2019-02-25T00:31:43.260Z,3.20
2019-02-25T00:34:12.114Z,3.80
2019-02-25T00:36:40.826Z,3.30
2019-02-25T00:39:09.733Z,3.37
2019-02-25T00:41:38.496Z,3.77
2019-02-25T00:44:07.252Z,3.80
2019-02-25T00:46:35.972Z,3.75
2019-02-25T00:49:04.781Z,3.60
2019-02-25T00:51:33.723Z,3.37
2019-02-25T00:54:02.584Z,3.95
2019-02-25T00:56:31.474Z,3.40
2019-02-25T00:59:00.407Z,3.77
2019-02-25T01:01:29.231Z,3.65
2019-02-25T01:03:58.089Z,3.20
2019-02-25T01:06:26.865Z,3.58
2019-02-25T01:08:55.685Z,3.27
2019-02-25T01:11:24.447Z,3.40
2019-02-25T01:13:52.203Z,3.60
2019-02-25T01:16:20.899Z,3.70
2019-02-25T01:18:49.756Z,3.72
2019-02-25T01:21:18.610Z,3.65
2019-02-25T01:23:48.908Z,3.47
2019-02-25T01:26:17.822Z,3.20
2019-02-25T01:28:48.231Z,3.27
2019-02-25T01:31:17.007Z,3.65
2019-02-25T01:33:45.958Z,3.60
2019-02-25T01:36:14.892Z,3.22
2019-02-25T01:38:43.818Z,3.55
2019-02-25T01:41:12.579Z,3.25
2019-02-25T01:43:41.407Z,3.90
2019-02-25T01:46:10.172Z,3.70
2019-02-25T01:48:38.999Z,3.30
2019-02-25T01:51:07.798Z,3.62
2019-02-25T01:53:36.554Z,3.10
2019-02-25T01:56:05.390Z,3.70
2019-02-25T01:58:34.133Z,3.10
2019-02-25T02:01:02.963Z,3.60
2019-02-25T02:03:31.769Z,3.08
2019-02-25T02:06:00.547Z,2.90
2019-02-25T02:08:29.344Z,3.35
2019-02-25T02:10:58.130Z,3.10
2019-02-25T02:13:26.939Z,3.20
2019-02-25T02:15:55.831Z,3.02
2019-02-25T02:18:24.641Z,3.40
2019-02-25T02:20:53.408Z,3.17
2019-02-25T02:23:22.169Z,3.20
2019-02-25T02:25:50.982Z,3.45
2019-02-25T02:28:19.749Z,3.02
2019-02-25T02:30:48.479Z,3.37
2019-02-25T02:33:17.245Z,3.05
2019-02-25T02:35:46.118Z,2.98
2019-02-25T02:38:14.897Z,3.27
2019-02-25T02:40:43.642Z,3.30
2019-02-25T02:43:12.502Z,3.08
2019-02-25T02:45:48.133Z,3.33
2019-02-25T02:48:41.236Z,3.17
2019-02-25T02:51:10.149Z,3.50
2019-02-25T02:53:39.016Z,2.95
2019-02-25T02:56:08.178Z,3.25
2019-02-25T02:58:37.028Z,3.42
2019-02-25T03:01:05.862Z,3.33
2019-02-25T03:03:34.690Z,3.10
2019-02-25T03:06:03.500Z,3.45
2019-02-25T03:08:32.402Z,3.05
2019-02-25T03:11:01.192Z,3.45
2019-02-25T03:13:30.067Z,3.42
2019-02-25T03:15:58.896Z,3.33
2019-02-25T03:18:27.703Z,2.77
2019-02-25T03:20:56.419Z,3.40
2019-02-25T03:23:25.311Z,3.12
2019-02-25T03:25:54.185Z,2.92
2019-02-25T03:28:22.934Z,3.10
2019-02-25T03:30:51.884Z,3.15
2019-02-25T03:33:20.789Z,3.05
2019-02-25T03:35:49.633Z,2.60
2019-02-25T03:38:18.412Z,3.17
2019-02-25T03:40:47.158Z,3.08
2019-02-25T03:43:16.032Z,3.35
2019-02-25T03:45:44.926Z,2.98
2019-02-25T03:48:13.757Z,3.00
2019-02-25T03:50:42.618Z,2.77
2019-02-25T03:53:11.384Z,2.87
2019-02-25T03:55:40.250Z,3.00
2019-02-25T03:58:09.004Z,3.47
2019-02-25T04:00:37.844Z,2.67
2019-02-25T04:03:06.566Z,3.15
2019-02-25T04:05:35.347Z,3.15
2019-02-25T04:08:04.146Z,3.20
2019-02-25T04:10:32.963Z,2.58
2019-02-25T04:13:01.713Z,2.98
2019-02-25T04:15:34.706Z,2.67
2019-02-25T04:20:31.389Z,3.35
2019-02-25T04:23:00.131Z,3.33
2019-02-25T04:25:29.004Z,3.20
2019-02-25T04:27:57.778Z,3.20
2019-02-25T04:30:26.580Z,2.87
2019-02-25T04:32:55.542Z,3.22
2019-02-25T04:35:24.317Z,3.47
2019-02-25T04:37:53.188Z,2.70
2019-02-25T04:40:21.994Z,3.10
2019-02-25T04:42:50.755Z,3.12
2019-02-25T04:45:19.566Z,2.70
2019-02-25T04:47:48.403Z,3.20
2019-02-25T04:50:17.240Z,3.25
2019-02-25T04:52:46.114Z,2.80
2019-02-25T04:55:14.979Z,2.83
2019-02-25T04:57:43.774Z,3.40
2019-02-25T05:00:14.571Z,3.10
2019-02-25T05:02:43.484Z,3.00
2019-02-25T05:05:12.364Z,3.05
2019-02-25T05:07:41.190Z,3.00
2019-02-25T05:10:11.462Z,2.70
2019-02-25T05:12:42.480Z,2.85
2019-02-25T05:15:13.703Z,2.83
2019-02-25T05:17:42.442Z,2.87
2019-02-25T05:20:11.216Z,2.60
2019-02-25T05:22:40.034Z,2.90
2019-02-25T05:25:08.916Z,3.00
2019-02-25T05:27:37.801Z,3.00
2019-02-25T05:30:08.618Z,3.15
2019-02-25T05:32:37.229Z,2.90
2019-02-25T05:35:06.805Z,2.90
2019-02-25T05:37:35.771Z,3.00
2019-02-25T05:40:05.307Z,3.10
2019-02-25T05:42:34.288Z,2.58
2019-02-25T05:45:02.965Z,2.87
2019-02-25T05:47:31.793Z,2.72
2019-02-25T05:50:00.621Z,2.90
2019-02-25T05:52:29.352Z,2.83
2019-02-25T05:54:58.175Z,3.15
2019-02-25T05:57:26.975Z,3.15
2019-02-25T05:59:55.834Z,2.98
2019-02-25T06:02:24.560Z,2.87
2019-02-25T06:04:53.560Z,3.33
2019-02-25T06:07:22.364Z,2.95
2019-02-25T06:09:51.249Z,2.87
2019-02-25T06:12:20.022Z,3.12
2019-02-25T06:14:48.971Z,3.00
2019-02-25T06:17:17.721Z,2.72
2019-02-25T06:19:46.548Z,2.87
2019-02-25T06:22:15.378Z,2.77
2019-02-25T06:24:44.216Z,3.35
2019-02-25T06:27:12.977Z,3.45
2019-02-25T06:29:41.864Z,2.90
2019-02-25T06:32:10.708Z,3.10
2019-02-25T06:34:39.534Z,2.90
2019-02-25T06:37:08.349Z,2.98
2019-02-25T06:39:37.279Z,3.40
2019-02-25T06:42:06.245Z,3.33
2019-02-25T06:44:35.169Z,3.08
2019-02-25T06:47:04.041Z,3.17
2019-02-25T06:49:32.825Z,3.25
2019-02-25T06:52:02.936Z,3.35
2019-02-25T06:54:31.731Z,3.25
2019-02-25T06:57:00.559Z,3.52
2019-02-25T06:59:29.418Z,3.67
2019-02-25T07:01:58.371Z,3.35
2019-02-25T07:04:41.212Z,3.70
2019-02-25T07:07:17.531Z,4.10
2019-02-25T07:10:11.807Z,4.00
2019-02-25T07:13:02.793Z,4.20
2019-02-25T07:16:08.754Z,4.10
2019-02-25T07:19:02.715Z,4.45
2019-02-25T07:21:41.334Z,4.40
2019-02-25T07:24:35.641Z,4.70
2019-02-25T07:27:29.402Z,4.40
2019-02-25T07:30:16.654Z,3.80
2019-02-25T07:33:03.244Z,4.28
2019-02-25T07:35:43.668Z,3.80
2019-02-25T07:38:39.145Z,3.83
2019-02-25T07:41:16.821Z,4.20
2019-02-25T07:44:07.841Z,4.55
2019-02-25T07:46:58.780Z,4.28
2019-02-25T07:49:42.182Z,13.50
2019-02-25T07:52:28.578Z,13.80
2019-02-25T07:55:09.365Z,13.98
2019-02-25T07:57:46.373Z,15.75
2019-02-25T08:00:23.383Z,16.00
2019-02-25T08:03:17.459Z,17.37
2019-02-25T08:05:52.513Z,15.95
2019-02-25T08:08:55.497Z,15.25
2019-02-25T08:11:41.868Z,12.45
2019-02-25T08:14:38.515Z,12.18
2019-02-25T08:17:24.955Z,11.45
2019-02-25T08:20:04.218Z,11.08
2019-02-25T08:23:07.468Z,10.75
2019-02-25T08:26:04.065Z,10.20
2019-02-25T08:28:51.950Z,10.72
2019-02-25T08:31:57.751Z,10.78
2019-02-25T08:34:54.797Z,10.23
2019-02-25T08:37:56.209Z,10.75
2019-02-25T08:41:03.410Z,9.93
2019-02-25T08:43:37.398Z,10.45
2019-02-25T08:46:31.204Z,12.63
2019-02-25T08:49:06.923Z,9.88
2019-02-25T08:51:35.877Z,10.58
2019-02-25T08:54:04.716Z,12.13
2019-02-25T08:56:33.699Z,14.07
2019-02-25T08:59:02.468Z,13.13
2019-02-25T09:01:31.289Z,13.32
2019-02-25T09:04:00.021Z,11.08
2019-02-25T09:06:29.047Z,13.35
2019-02-25T09:08:57.855Z,12.43
2019-02-25T09:11:26.781Z,12.37
2019-02-25T09:13:55.677Z,12.20
2019-02-25T09:16:24.461Z,11.10
2019-02-25T09:18:53.365Z,11.25
2019-02-25T09:21:22.291Z,12.03
2019-02-25T09:23:51.132Z,12.93
2019-02-25T09:26:19.983Z,12.90
2019-02-25T09:28:48.910Z,10.80
2019-02-25T09:31:17.802Z,11.73
2019-02-25T09:33:47.984Z,10.08
2019-02-25T09:36:16.789Z,9.50
2019-02-25T09:38:48.452Z,10.00
2019-02-25T09:41:17.467Z,9.90
2019-02-25T09:43:46.520Z,9.75
2019-02-25T09:46:15.460Z,9.05
2019-02-25T09:48:44.350Z,9.18
2019-02-25T09:51:13.176Z,8.83
2019-02-25T09:53:42.022Z,8.83
2019-02-25T09:56:10.790Z,9.00
2019-02-25T09:58:39.602Z,8.65
2019-02-25T10:01:08.633Z,8.68
2019-02-25T10:03:37.631Z,8.03
2019-02-25T10:06:06.510Z,7.90
2019-02-25T10:08:35.463Z,7.90
2019-02-25T10:11:04.293Z,8.30
2019-02-25T10:13:33.067Z,8.23
2019-02-25T10:16:01.944Z,7.65
2019-02-25T10:18:30.807Z,7.70
2019-02-25T10:20:59.737Z,8.13
2019-02-25T10:23:28.487Z,7.50
2019-02-25T10:25:57.316Z,8.33
2019-02-25T10:28:26.211Z,8.83
2019-02-25T10:30:55.104Z,8.13
2019-02-25T10:33:23.898Z,8.45
2019-02-25T10:35:52.779Z,7.92
2019-02-25T10:38:21.672Z,8.70
2019-02-25T10:40:52.161Z,7.45
2019-02-25T10:43:21.180Z,7.97
2019-02-25T10:45:50.086Z,8.25
2019-02-25T10:48:19.862Z,7.83
2019-02-25T10:50:55.800Z,7.72
2019-02-25T10:53:21.997Z,7.03
2019-02-25T10:55:56.537Z,7.42
2019-02-25T10:58:26.966Z,7.28
2019-02-25T11:00:56.182Z,7.75
2019-02-25T11:03:25.037Z,7.35
2019-02-25T11:05:56.208Z,7.12
2019-02-25T11:08:24.676Z,7.62
2019-02-25T11:10:58.826Z,7.30
2019-02-25T11:13:29.670Z,7.08
2019-02-25T11:15:58.217Z,7.05
2019-02-25T11:18:28.463Z,7.17
2019-02-25T11:20:58.998Z,7.47
2019-02-25T11:23:28.285Z,6.55
2019-02-25T11:25:57.981Z,6.20
2019-02-25T11:28:27.624Z,6.72
2019-02-25T11:30:56.485Z,6.37
2019-02-25T11:33:27.495Z,6.50
2019-02-25T11:35:56.061Z,5.95
2019-02-25T11:38:26.117Z,6.10
2019-02-25T11:40:55.643Z,5.53
2019-02-25T11:43:24.508Z,5.55
2019-02-25T11:45:53.407Z,5.80
2019-02-25T11:48:22.735Z,5.40
2019-02-25T11:50:51.851Z,4.95
2019-02-25T11:53:20.785Z,4.80
2019-02-25T11:55:49.769Z,4.60
2019-02-25T11:58:18.711Z,5.15
2019-02-25T12:00:47.567Z,5.67
2019-02-25T12:03:16.415Z,4.90
2019-02-25T12:05:45.385Z,5.03
2019-02-25T12:08:14.352Z,5.08
2019-02-25T12:10:43.274Z,5.15
2019-02-25T12:13:12.214Z,4.62
2019-02-25T12:15:41.227Z,4.65
2019-02-25T12:18:10.136Z,4.25
2019-02-25T12:20:40.419Z,4.60
2019-02-25T12:23:09.258Z,4.42
2019-02-25T12:25:38.133Z,4.58
2019-02-25T12:28:07.037Z,4.10
2019-02-25T12:30:36.001Z,5.10
2019-02-25T12:33:04.777Z,3.83
2019-02-25T12:35:33.635Z,4.25
2019-02-25T12:38:02.522Z,4.33
2019-02-25T12:40:31.448Z,3.87
2019-02-25T12:43:00.450Z,4.42
2019-02-25T12:45:29.354Z,3.95
2019-02-25T12:47:58.189Z,4.10
2019-02-25T12:50:27.034Z,4.50
2019-02-25T12:52:55.914Z,4.33
2019-02-25T12:55:24.703Z,4.35
2019-02-25T12:57:53.596Z,4.35
2019-02-25T13:00:22.468Z,4.35
2019-02-25T13:02:51.398Z,3.90
2019-02-25T13:05:20.390Z,3.98
2019-02-25T13:07:49.379Z,4.10
2019-02-25T13:10:18.609Z,4.03
2019-02-25T13:12:47.524Z,3.95
2019-02-25T13:15:16.402Z,3.90
2019-02-25T13:17:45.318Z,3.83
2019-02-25T13:20:14.300Z,3.87
2019-02-25T13:22:43.212Z,3.95
2019-02-25T13:25:13.228Z,4.12
2019-02-25T13:27:42.204Z,4.00
2019-02-25T13:30:13.663Z,3.52
2019-02-25T13:32:42.598Z,3.47
2019-02-25T13:35:12.070Z,3.98
2019-02-25T13:37:41.075Z,3.65
2019-02-25T13:40:10.219Z,3.20
2019-02-25T13:42:39.089Z,3.30
2019-02-25T13:45:08.877Z,3.45
2019-02-25T13:47:37.800Z,3.65
2019-02-25T13:50:07.078Z,3.50
2019-02-25T13:52:35.986Z,3.40
2019-02-25T13:55:05.285Z,3.10
2019-02-25T13:57:34.147Z,3.27
2019-02-25T14:00:03.081Z,3.58
2019-02-25T14:02:31.905Z,3.00
2019-02-25T14:05:01.033Z,3.10
2019-02-25T14:07:29.950Z,2.90
2019-02-25T14:09:58.799Z,2.92
2019-02-25T14:12:27.974Z,3.00
2019-02-25T14:14:56.987Z,2.95
2019-02-25T14:17:26.443Z,3.08
2019-02-25T14:19:55.590Z,3.05
2019-02-25T14:22:24.478Z,3.25
2019-02-25T14:24:53.557Z,3.08
2019-02-25T14:27:22.550Z,3.20
2019-02-25T14:29:51.563Z,3.25
2019-02-25T14:32:20.531Z,3.02
2019-02-25T14:34:49.665Z,3.17
2019-02-25T14:37:20.256Z,2.92
2019-02-25T14:39:51.587Z,2.98
2019-02-25T14:42:21.132Z,3.12
2019-02-25T14:44:52.277Z,2.65
2019-02-25T14:47:25.805Z,2.92
2019-02-25T14:49:52.022Z,2.70
2019-02-25T14:52:21.866Z,3.83
2019-02-25T14:54:51.714Z,3.70
2019-02-25T14:57:20.681Z,3.95
2019-02-25T14:59:49.690Z,3.55
2019-02-25T15:02:18.871Z,4.30
2019-02-25T15:04:47.669Z,3.27
2019-02-25T15:07:16.575Z,4.10
2019-02-25T15:09:45.817Z,3.17
2019-02-25T15:12:14.925Z,3.50
2019-02-25T15:14:43.772Z,3.67
2019-02-25T15:17:14.412Z,3.90
2019-02-25T15:19:43.309Z,4.50
2019-02-25T15:22:12.115Z,3.58
2019-02-25T15:24:44.159Z,3.80
2019-02-25T15:27:12.972Z,3.55
2019-02-25T15:29:44.497Z,3.52
2019-02-25T15:32:12.973Z,3.70
2019-02-25T15:34:41.876Z,3.52
2019-02-25T15:37:11.820Z,3.27
2019-02-25T15:39:42.395Z,3.50
2019-02-25T15:42:11.632Z,3.33
2019-02-25T15:44:42.339Z,3.30
2019-02-25T15:47:12.868Z,3.50
2019-02-25T15:49:41.815Z,3.62
2019-02-25T15:52:14.441Z,3.60
2019-02-25T15:54:43.224Z,3.42
2019-02-25T15:57:12.275Z,3.45
2019-02-25T15:59:41.202Z,3.05
2019-02-25T16:02:13.522Z,3.42
2019-02-25T16:04:42.378Z,3.10
2019-02-25T16:07:11.662Z,3.40
2019-02-25T16:09:40.732Z,3.55
2019-02-25T16:12:09.749Z,3.37
2019-02-25T16:14:39.052Z,3.08
2019-02-25T16:17:08.262Z,3.45
2019-02-25T16:19:43.797Z,2.80
2019-02-25T16:22:09.635Z,22.50
2019-02-25T16:24:38.745Z,16.67
2019-02-25T16:27:07.609Z,10.93
2019-02-25T16:29:36.456Z,6.78
2019-02-25T16:32:05.378Z,6.15
2019-02-25T16:34:35.799Z,5.50
2019-02-25T16:37:05.799Z,5.78
2019-02-25T16:39:34.692Z,5.60
2019-02-25T16:42:03.567Z,5.20
2019-02-25T16:44:32.592Z,5.05
2019-02-25T16:47:01.731Z,5.00
2019-02-25T16:49:31.781Z,4.85
2019-02-25T16:52:02.274Z,5.15
2019-02-25T16:54:31.251Z,4.95
2019-02-25T16:57:01.748Z,4.55
2019-02-25T16:59:30.669Z,5.03
2019-02-25T17:02:00.117Z,5.40
2019-02-25T17:04:31.852Z,5.22
2019-02-25T17:07:01.195Z,4.75
2019-02-25T17:09:31.962Z,4.85
2019-02-25T17:12:02.874Z,5.22
2019-02-25T17:14:32.567Z,4.70
2019-02-25T17:17:01.749Z,5.22
2019-02-25T17:19:30.724Z,4.80
2019-02-25T17:21:59.683Z,4.67
2019-02-25T17:24:30.351Z,4.15
2019-02-25T17:27:00.013Z,4.53
2019-02-25T17:29:31.896Z,4.22
2019-02-25T17:32:01.939Z,4.65
2019-02-25T17:34:32.293Z,4.03
2019-02-25T17:37:02.014Z,4.58
2019-02-25T17:39:31.696Z,4.53
2019-02-25T17:42:03.411Z,4.72
2019-02-25T17:44:34.863Z,3.87
2019-02-25T17:47:04.583Z,4.00
2019-02-25T17:49:35.747Z,4.60
2019-02-25T17:52:05.002Z,4.35
2019-02-25T17:54:35.587Z,4.30
2019-02-25T17:57:05.363Z,4.08
2019-02-25T17:59:35.459Z,4.62
2019-02-25T18:02:06.161Z,4.20
2019-02-25T18:04:35.364Z,4.67
2019-02-25T18:07:04.436Z,4.72
2019-02-25T18:09:33.534Z,4.40
2019-02-25T18:12:04.303Z,3.87
2019-02-25T18:14:33.838Z,3.58
2019-02-25T18:17:03.394Z,4.03
2019-02-25T18:19:33.896Z,3.80
2019-02-25T18:22:04.548Z,4.03
2019-02-25T18:24:33.566Z,4.25
2019-02-25T18:27:04.409Z,4.35
2019-02-25T18:29:33.768Z,3.92
2019-02-25T18:32:04.217Z,3.87
2019-02-25T18:34:36.472Z,4.10
2019-02-25T18:37:07.044Z,4.28
2019-02-25T18:39:35.886Z,4.10
2019-02-25T18:42:05.603Z,4.47
2019-02-25T18:44:35.269Z,4.60
2019-02-25T18:47:04.481Z,4.78
2019-02-25T18:49:34.979Z,4.28
2019-02-25T18:52:05.837Z,4.25
2019-02-25T18:54:36.807Z,4.53
2019-02-25T18:57:07.630Z,3.90
2019-02-25T18:59:37.172Z,4.03
2019-02-25T19:02:07.978Z,4.08
2019-02-25T19:04:39.221Z,4.42
2019-02-25T19:07:10.374Z,4.40
2019-02-25T19:09:43.040Z,3.90
2019-02-25T19:12:12.212Z,4.37
2019-02-25T19:14:41.903Z,4.50
2019-02-25T19:17:11.505Z,3.80
2019-02-25T19:19:42.563Z,4.30
2019-02-25T19:22:15.231Z,3.75
2019-02-25T19:24:45.042Z,3.75
2019-02-25T19:27:16.349Z,4.20
2019-02-25T19:29:47.682Z,4.03
2019-02-25T19:32:18.173Z,3.65
2019-02-25T19:34:48.697Z,3.60
2019-02-25T19:37:18.170Z,3.70
2019-02-25T19:39:48.813Z,4.40
2019-02-25T19:42:20.829Z,3.60
2019-02-25T19:44:49.261Z,3.83
2019-02-25T19:47:19.442Z,4.22
2019-02-25T19:49:49.023Z,4.28
2019-02-25T19:52:18.560Z,3.42
2019-02-25T19:54:48.766Z,4.10
2019-02-25T19:57:21.674Z,3.87
2019-02-25T19:59:51.141Z,3.70
2019-02-25T20:02:22.605Z,3.92
2019-02-25T20:04:52.088Z,4.28
2019-02-25T20:07:25.682Z,4.03
2019-02-25T20:09:52.271Z,4.62
2019-02-25T20:12:21.856Z,4.60
2019-02-25T20:14:51.100Z,4.35
2019-02-25T20:17:26.092Z,4.50
2019-02-25T20:19:55.122Z,4.50
2019-02-25T20:22:24.518Z,4.40
2019-02-25T20:24:55.238Z,4.12
2019-02-25T20:27:25.450Z,4.33
2019-02-25T20:29:55.879Z,4.10
2019-02-25T20:32:26.410Z,4.00
2019-02-25T20:34:57.189Z,4.67
2019-02-25T20:37:27.361Z,4.65
2019-02-25T20:39:58.127Z,4.05
2019-02-25T20:42:28.554Z,3.92
2019-02-25T20:44:59.846Z,4.65
2019-02-25T20:47:28.927Z,4.85
2019-02-25T20:50:00.437Z,4.25
2019-02-25T20:52:29.556Z,4.30
2019-02-25T20:55:01.076Z,4.37
2019-02-25T20:57:31.635Z,5.28
2019-02-25T21:00:04.038Z,4.17
2019-02-25T21:02:32.923Z,4.10
2019-02-25T21:05:02.035Z,4.47
2019-02-25T21:07:32.288Z,4.20
2019-02-25T21:10:03.998Z,4.35
2019-02-25T21:12:33.302Z,4.03
2019-02-25T21:15:02.802Z,4.12
2019-02-25T21:17:33.227Z,4.08
2019-02-25T21:20:04.535Z,3.95
2019-02-25T21:22:34.041Z,4.40
2019-02-25T21:25:04.860Z,3.85
2019-02-25T21:27:36.974Z,4.05
2019-02-25T21:30:08.300Z,3.98
2019-02-25T21:32:37.351Z,4.50
2019-02-25T21:35:07.471Z,3.75
2019-02-25T21:37:36.468Z,3.60
2019-02-25T21:40:07.410Z,4.00
2019-02-25T21:42:36.364Z,4.08
2019-02-25T21:45:06.195Z,4.45
2019-02-25T21:47:35.268Z,4.65
2019-02-25T21:50:06.840Z,4.20
2019-02-25T21:52:35.022Z,4.15
2019-02-25T21:55:07.525Z,4.67
2019-02-25T21:57:37.617Z,4.03
2019-02-25T22:00:09.280Z,4.00
2019-02-25T22:02:41.169Z,4.58
2019-02-25T22:05:11.662Z,4.22
2019-02-25T22:07:39.838Z,3.85
2019-02-25T22:10:09.771Z,3.95
2019-02-25T22:12:40.525Z,4.35
2019-02-25T22:15:11.333Z,3.80
2019-02-25T22:17:43.896Z,3.95
2019-02-25T22:20:14.370Z,4.33
2019-02-25T22:22:43.268Z,4.05
2019-02-25T22:25:15.307Z,4.70
2019-02-25T22:27:45.575Z,4.22
2019-02-25T22:30:16.433Z,4.30
2019-02-25T22:32:45.345Z,4.20
2019-02-25T22:35:15.088Z,4.15
2019-02-25T22:37:46.722Z,4.05
2019-02-25T22:40:16.940Z,4.50
2019-02-25T22:42:49.348Z,3.80
2019-02-25T22:45:18.233Z,4.08
2019-02-25T22:47:47.084Z,4.00
2019-02-25T22:50:16.090Z,4.28
2019-02-25T22:52:44.922Z,4.15
2019-02-25T22:55:15.382Z,4.35
2019-02-25T22:57:46.052Z,4.03
2019-02-25T23:00:58.312Z,3.77
2019-02-25T23:03:27.513Z,3.80
2019-02-25T23:05:55.877Z,3.62
2019-02-25T23:08:25.983Z,3.60
2019-02-25T23:10:55.001Z,3.58
2019-02-25T23:13:25.062Z,4.00
2019-02-25T23:15:54.521Z,3.47
2019-02-25T23:18:27.304Z,3.47
2019-02-25T23:20:57.012Z,3.85
2019-02-25T23:23:26.473Z,4.35
2019-02-25T23:25:56.529Z,3.80
2019-02-25T23:28:27.962Z,3.50
2019-02-25T23:30:56.674Z,3.60
2019-02-25T23:33:25.593Z,4.00
2019-02-25T23:35:56.013Z,4.00
2019-02-25T23:38:25.027Z,3.50
2019-02-25T23:40:53.965Z,3.75
2019-02-25T23:43:22.794Z,3.90
2019-02-25T23:45:51.647Z,3.70
2019-02-25T23:48:20.603Z,3.62
2019-02-25T23:50:50.316Z,3.72
2019-02-25T23:53:20.089Z,3.90
2019-02-25T23:55:50.073Z,3.72
2019-02-25T23:58:20.180Z,3.65
